createdAt,value
2022-11-09T00:01:31.612Z,100407.59
2022-11-09T00:04:02.093Z,100398.09
2022-11-09T00:06:32.137Z,100395.50
2022-11-09T00:09:07.100Z,100405.75
2022-11-09T00:11:37.499Z,100397.03
2022-11-09T00:14:09.624Z,100403.84
2022-11-09T00:16:39.184Z,100403.78
2022-11-09T00:19:08.703Z,100393.44
2022-11-09T00:21:38.696Z,100404.56
2022-11-09T00:24:08.729Z,100400.19
2022-11-09T00:26:38.203Z,100395.84
2022-11-09T00:29:10.648Z,100396.69
2022-11-09T00:31:40.401Z,100393.19
2022-11-09T00:34:09.913Z,100388.03
2022-11-09T00:36:39.441Z,100386.16
2022-11-09T00:39:08.938Z,100381.00
2022-11-09T00:41:38.452Z,100381.72
2022-11-09T00:44:10.777Z,100374.75
2022-11-09T00:46:40.626Z,100371.19
2022-11-09T00:49:10.107Z,100386.66
2022-11-09T00:51:39.537Z,100388.34
2022-11-09T00:54:09.961Z,100387.44
2022-11-09T00:56:39.445Z,100382.06
2022-11-09T00:59:13.088Z,100382.06
2022-11-09T01:01:42.611Z,100376.81
2022-11-09T01:04:12.072Z,100380.22
2022-11-09T01:06:41.643Z,100369.78
2022-11-09T01:09:12.601Z,100368.94
2022-11-09T01:11:43.052Z,100368.94
2022-11-09T01:14:15.393Z,100368.88
2022-11-09T01:16:45.184Z,100379.16
2022-11-09T01:19:14.823Z,100372.28
2022-11-09T01:21:44.257Z,100361.97
2022-11-09T01:24:14.131Z,100363.56
2022-11-09T01:26:43.497Z,100367.75
2022-11-09T01:29:15.481Z,100367.75
2022-11-09T01:31:46.044Z,100361.72
2022-11-09T01:34:17.418Z,100364.25
2022-11-09T01:36:46.865Z,100360.56
2022-11-09T01:39:16.222Z,100351.09
2022-11-09T01:41:45.843Z,100351.06
2022-11-09T01:44:19.639Z,100352.06
2022-11-09T01:46:52.812Z,100358.03
2022-11-09T01:49:31.959Z,100356.38
2022-11-09T01:52:04.436Z,100358.84
2022-11-09T01:54:37.969Z,100356.88
2022-11-09T01:57:11.994Z,100357.78
2022-11-09T01:59:46.167Z,100357.59
2022-11-09T02:02:15.777Z,100352.28
2022-11-09T02:04:48.679Z,100355.66
2022-11-09T02:07:18.334Z,100358.13
2022-11-09T02:09:51.077Z,100358.06
2022-11-09T02:12:20.747Z,100362.25
2022-11-09T02:14:55.059Z,100356.50
2022-11-09T02:17:24.888Z,100355.41
2022-11-09T02:19:54.281Z,100345.78
2022-11-09T02:22:26.456Z,100352.69
2022-11-09T02:24:56.627Z,100344.00
2022-11-09T02:27:26.232Z,100342.50
2022-11-09T02:29:56.048Z,100342.25
2022-11-09T02:32:27.705Z,100344.13
2022-11-09T02:34:57.178Z,100330.16
2022-11-09T02:37:35.548Z,100323.44
2022-11-09T02:40:09.938Z,100325.78
2022-11-09T02:42:39.408Z,100327.59
2022-11-09T02:45:09.976Z,100332.75
2022-11-09T02:47:39.335Z,100330.16
2022-11-09T02:50:09.641Z,100333.47
2022-11-09T02:52:41.606Z,100334.44
2022-11-09T02:55:12.024Z,100336.91
2022-11-09T02:57:41.405Z,100333.47
2022-11-09T03:00:12.251Z,100334.44
2022-11-09T03:02:41.749Z,100328.41
2022-11-09T03:05:11.718Z,100333.59
2022-11-09T03:07:43.683Z,100332.69
2022-11-09T03:10:13.051Z,100333.47
2022-11-09T03:12:42.436Z,100333.47
2022-11-09T03:15:13.039Z,100334.25
2022-11-09T03:17:42.439Z,100334.25
2022-11-09T03:20:13.302Z,100334.97
2022-11-09T03:22:45.270Z,100328.13
2022-11-09T03:25:14.709Z,100324.63
2022-11-09T03:27:44.095Z,100323.00
2022-11-09T03:30:14.113Z,100318.63
2022-11-09T03:32:48.040Z,100309.13
2022-11-09T03:35:19.768Z,100310.09
2022-11-09T03:37:51.823Z,100306.59
2022-11-09T03:40:21.599Z,100310.97
2022-11-09T03:42:51.706Z,100313.66
2022-11-09T03:45:21.096Z,100311.06
2022-11-09T03:47:50.672Z,100309.41
2022-11-09T03:50:20.789Z,100314.59
2022-11-09T03:52:52.839Z,100307.81
2022-11-09T03:55:22.491Z,100311.47
2022-11-09T03:57:52.194Z,100300.38
2022-11-09T04:00:23.431Z,100310.75
2022-11-09T04:02:52.950Z,100308.13
2022-11-09T04:05:22.864Z,100296.06
2022-11-09T04:07:56.659Z,100296.03
2022-11-09T04:10:27.146Z,100296.88
2022-11-09T04:12:56.836Z,100297.16
2022-11-09T04:15:26.243Z,100294.53
2022-11-09T04:17:59.680Z,100288.47
2022-11-09T04:20:29.786Z,100276.53
2022-11-09T04:23:05.096Z,100275.09
2022-11-09T04:25:36.021Z,100275.13
2022-11-09T04:28:06.997Z,100280.75
2022-11-09T04:30:38.581Z,100276.50
2022-11-09T04:33:08.359Z,100283.41
2022-11-09T04:35:38.460Z,100272.44
2022-11-09T04:38:14.114Z,100271.66
2022-11-09T04:40:43.657Z,100275.94
2022-11-09T04:43:16.062Z,100272.41
2022-11-09T04:45:47.382Z,100270.88
2022-11-09T04:48:16.799Z,100269.19
2022-11-09T04:50:46.189Z,100280.50
2022-11-09T04:53:18.279Z,100280.50
2022-11-09T04:55:47.665Z,100278.06
2022-11-09T04:58:19.899Z,100265.13
2022-11-09T05:00:53.248Z,100272.03
2022-11-09T05:03:23.242Z,100272.00
2022-11-09T05:05:52.808Z,100271.81
2022-11-09T05:08:24.788Z,100268.50
2022-11-09T05:10:54.188Z,100274.63
2022-11-09T05:13:23.590Z,100274.56
2022-11-09T05:15:53.101Z,100279.75
2022-11-09T05:18:22.534Z,100287.47
2022-11-09T05:20:51.909Z,100282.59
2022-11-09T05:23:36.349Z,100284.19
2022-11-09T05:26:05.726Z,100284.50
2022-11-09T05:28:35.370Z,100280.97
2022-11-09T05:31:04.744Z,100272.34
2022-11-09T05:33:34.163Z,100275.69
2022-11-09T05:36:03.565Z,100268.72
2022-11-09T05:38:35.554Z,100281.59
2022-11-09T05:41:04.931Z,100279.16
2022-11-09T05:43:34.628Z,100272.25
2022-11-09T05:46:06.705Z,100272.19
2022-11-09T05:48:36.401Z,100271.19
2022-11-09T05:51:06.270Z,100260.59
2022-11-09T05:53:41.180Z,100257.81
2022-11-09T05:56:15.563Z,100264.47
2022-11-09T05:58:45.005Z,100259.31
2022-11-09T06:01:16.883Z,100263.53
2022-11-09T06:03:46.380Z,100265.25
2022-11-09T06:06:18.547Z,100265.16
2022-11-09T06:08:50.809Z,100263.41
2022-11-09T06:11:24.017Z,100265.13
2022-11-09T06:13:54.104Z,100259.06
2022-11-09T06:16:24.109Z,100272.84
2022-11-09T06:18:53.507Z,100272.66
2022-11-09T06:21:22.906Z,100269.25
2022-11-09T06:23:54.879Z,100280.47
2022-11-09T06:26:24.272Z,100284.75
2022-11-09T06:28:53.649Z,100293.22
2022-11-09T06:31:23.320Z,100291.59
2022-11-09T06:33:52.737Z,100285.66
2022-11-09T06:36:22.260Z,100277.13
2022-11-09T06:38:54.783Z,100289.38
2022-11-09T06:41:24.163Z,100289.38
2022-11-09T06:43:53.540Z,100286.94
2022-11-09T06:46:22.964Z,100288.06
2022-11-09T06:48:54.668Z,100283.91
2022-11-09T06:51:24.195Z,100299.59
2022-11-09T06:53:56.216Z,100305.72
2022-11-09T06:56:25.622Z,100303.03
2022-11-09T06:58:55.021Z,100309.16
2022-11-09T07:01:30.083Z,100306.53
2022-11-09T07:03:59.604Z,100315.97
2022-11-09T07:06:29.210Z,100306.47
2022-11-09T07:09:01.241Z,100308.16
2022-11-09T07:11:30.610Z,100307.16
2022-11-09T07:14:01.301Z,100306.34
2022-11-09T07:16:30.771Z,100310.59
2022-11-09T07:19:00.602Z,100319.13
2022-11-09T07:21:30.252Z,100315.75
2022-11-09T07:24:02.223Z,100316.41
2022-11-09T07:26:31.663Z,100327.50
2022-11-09T07:29:01.083Z,100321.44
2022-11-09T07:31:31.479Z,100318.94
2022-11-09T07:34:04.778Z,100329.97
2022-11-09T07:36:36.661Z,100329.91
2022-11-09T07:39:08.878Z,100325.59
2022-11-09T07:41:38.397Z,100336.88
2022-11-09T07:44:07.984Z,100324.72
2022-11-09T07:46:37.399Z,100337.78
2022-11-09T07:49:06.839Z,100332.59
2022-11-09T07:51:40.734Z,100339.47
2022-11-09T07:54:13.424Z,100341.22
2022-11-09T07:56:42.780Z,100340.31
2022-11-09T07:59:12.391Z,100333.50
2022-11-09T08:01:41.823Z,100343.84
2022-11-09T08:04:11.517Z,100343.84
2022-11-09T08:06:40.946Z,100343.88
2022-11-09T08:09:12.980Z,100342.22
2022-11-09T08:11:42.357Z,100342.22
2022-11-09T08:14:12.307Z,100339.66
2022-11-09T08:16:41.758Z,100354.25
2022-11-09T08:19:11.614Z,100344.81
2022-11-09T08:21:41.102Z,100344.81
2022-11-09T08:24:13.253Z,100339.66
2022-11-09T08:26:42.636Z,100335.44
2022-11-09T08:29:13.564Z,100327.84
2022-11-09T08:31:42.960Z,100325.31
2022-11-09T08:34:13.994Z,100328.84
2022-11-09T08:36:43.498Z,100334.81
2022-11-09T08:39:15.507Z,100333.00
2022-11-09T08:41:45.009Z,100332.94
2022-11-09T08:44:14.441Z,100328.66
2022-11-09T08:46:43.823Z,100337.41
2022-11-09T08:49:13.361Z,100333.19
2022-11-09T08:51:42.814Z,100324.78
2022-11-09T08:54:15.214Z,100325.69
2022-11-09T08:56:46.431Z,100316.34
2022-11-09T08:59:15.812Z,100306.94
2022-11-09T09:01:45.256Z,100311.34
2022-11-09T09:04:14.689Z,100309.03
2022-11-09T09:06:44.104Z,100296.19
2022-11-09T09:09:16.171Z,100297.22
2022-11-09T09:11:46.027Z,100284.34
2022-11-09T09:14:15.460Z,100270.75
2022-11-09T09:16:45.335Z,100245.75
2022-11-09T09:19:15.061Z,100220.03
2022-11-09T09:21:44.437Z,100198.56
2022-11-09T09:24:16.538Z,100170.25
2022-11-09T09:26:47.081Z,100078.66
2022-11-09T09:29:17.063Z,100034.69
2022-11-09T09:31:46.554Z,100014.22
2022-11-09T09:34:16.796Z,99975.63
2022-11-09T09:36:48.241Z,99955.59
2022-11-09T09:39:20.641Z,99939.97
2022-11-09T09:41:54.292Z,99947.63
2022-11-09T09:44:28.131Z,99941.31
2022-11-09T09:47:02.342Z,99917.06
2022-11-09T09:49:33.666Z,99934.09
2022-11-09T09:52:06.307Z,99943.63
2022-11-09T09:54:43.948Z,99950.56
2022-11-09T09:57:16.657Z,99923.84
2022-11-09T09:59:48.096Z,99909.41
2022-11-09T10:02:27.417Z,99890.56
2022-11-09T10:04:59.402Z,99859.66
2022-11-09T10:07:33.489Z,99847.56
2022-11-09T10:10:27.768Z,99820.16
2022-11-09T10:13:09.249Z,99804.66
2022-11-09T10:15:41.944Z,99803.88
2022-11-09T10:18:26.297Z,99738.31
2022-11-09T10:21:08.548Z,99698.56
2022-11-09T10:23:54.511Z,99677.88
2022-11-09T10:26:30.368Z,99668.41
2022-11-09T10:29:20.506Z,99647.75
2022-11-09T10:31:51.428Z,99600.97
2022-11-09T10:34:22.452Z,99597.59
2022-11-09T10:36:57.841Z,99588.13
2022-11-09T10:39:29.678Z,99537.22
2022-11-09T10:42:01.657Z,99496.56
2022-11-09T10:44:31.052Z,99487.09
2022-11-09T10:47:09.238Z,99449.91
2022-11-09T10:49:39.567Z,99437.91
2022-11-09T10:52:12.998Z,99418.06
2022-11-09T10:54:42.365Z,99402.50
2022-11-09T10:57:20.133Z,99383.41
2022-11-09T10:59:53.554Z,99386.06
2022-11-09T11:02:47.745Z,99367.88
2022-11-09T11:05:38.996Z,99356.59
2022-11-09T11:08:28.428Z,99335.06
2022-11-09T11:11:33.332Z,99335.94
2022-11-09T11:14:22.454Z,99357.44
2022-11-09T11:16:53.672Z,99379.84
2022-11-09T11:19:37.708Z,99410.03
2022-11-09T11:22:28.239Z,99433.44
2022-11-09T11:24:59.303Z,99426.47
2022-11-09T11:27:33.259Z,99394.47
2022-11-09T11:30:11.669Z,99339.25
2022-11-09T11:32:47.056Z,99287.41
2022-11-09T11:35:21.547Z,99284.91
2022-11-09T11:37:56.854Z,99275.47
2022-11-09T11:40:32.764Z,99276.25
2022-11-09T11:43:17.765Z,99278.75
2022-11-09T11:45:56.773Z,99283.94
2022-11-09T11:49:02.712Z,99276.91
2022-11-09T11:51:38.732Z,99265.72
2022-11-09T11:54:14.891Z,99260.47
2022-11-09T11:56:47.096Z,99234.59
2022-11-09T11:59:39.152Z,99238.81
2022-11-09T12:02:30.465Z,99247.47
2022-11-09T12:05:32.210Z,99249.22
2022-11-09T12:08:06.191Z,99259.59
2022-11-09T12:10:48.312Z,99249.38
2022-11-09T12:13:30.175Z,99251.09
2022-11-09T12:16:03.610Z,99252.03
2022-11-09T12:18:44.633Z,99223.53
2022-11-09T12:21:18.664Z,99216.59
2022-11-09T12:24:03.197Z,99220.94
2022-11-09T12:27:10.895Z,99215.75
2022-11-09T12:29:49.323Z,99220.13
2022-11-09T12:32:28.881Z,99209.78
2022-11-09T12:35:23.724Z,99233.94
2022-11-09T12:37:55.549Z,99225.38
2022-11-09T12:40:30.285Z,99227.94
2022-11-09T12:43:04.981Z,99237.47
2022-11-09T12:45:36.668Z,99259.13
2022-11-09T12:48:14.921Z,99261.75
2022-11-09T12:50:47.061Z,99268.63
2022-11-09T12:53:16.882Z,99262.59
2022-11-09T12:55:49.548Z,99264.28
2022-11-09T12:58:24.889Z,99238.34
2022-11-09T13:00:57.457Z,99225.31
2022-11-09T13:03:29.883Z,99215.81
2022-11-09T13:06:17.154Z,99220.25
2022-11-09T13:08:59.246Z,99248.81
2022-11-09T13:11:39.683Z,99273.00
2022-11-09T13:14:35.449Z,99292.06
2022-11-09T13:17:06.157Z,99314.63
2022-11-09T13:19:55.024Z,99366.50
2022-11-09T13:22:54.606Z,99368.31
2022-11-09T13:25:52.889Z,99392.34
2022-11-09T13:28:44.990Z,99375.16
2022-11-09T13:31:14.945Z,99438.34
2022-11-09T13:33:44.371Z,99463.50
2022-11-09T13:36:19.648Z,99459.06
2022-11-09T13:38:50.600Z,99420.22
2022-11-09T13:41:46.728Z,99433.97
2022-11-09T13:44:26.929Z,99366.38
2022-11-09T13:46:56.580Z,99372.50
2022-11-09T13:49:50.507Z,99397.44
2022-11-09T13:52:47.743Z,99362.81
2022-11-09T13:55:26.425Z,99361.09
2022-11-09T13:58:01.371Z,99371.50
2022-11-09T14:00:30.876Z,99363.72
2022-11-09T14:03:06.705Z,99412.25
2022-11-09T14:05:39.401Z,99478.06
2022-11-09T14:08:08.928Z,99520.38
2022-11-09T14:11:02.584Z,99487.44
2022-11-09T14:14:03.874Z,99468.31
2022-11-09T14:16:41.667Z,99474.34
2022-11-09T14:19:19.251Z,99461.31
2022-11-09T14:21:51.146Z,99453.47
2022-11-09T14:24:22.524Z,99436.16
2022-11-09T14:27:17.416Z,99431.75
2022-11-09T14:29:55.233Z,99416.16
2022-11-09T14:32:31.465Z,99404.84
2022-11-09T14:35:23.102Z,99381.41
2022-11-09T14:37:53.159Z,99356.22
2022-11-09T14:40:25.868Z,99338.09
2022-11-09T14:42:57.489Z,99314.72
2022-11-09T14:45:29.892Z,99306.91
2022-11-09T14:48:01.412Z,99303.47
2022-11-09T14:50:32.446Z,99303.41
2022-11-09T14:53:02.800Z,99304.25
2022-11-09T14:55:39.928Z,99291.31
2022-11-09T14:58:14.370Z,99290.44
2022-11-09T15:00:46.433Z,99289.56
2022-11-09T15:03:29.916Z,99299.03
2022-11-09T15:06:07.469Z,99293.84
2022-11-09T15:08:37.466Z,99294.69
2022-11-09T15:11:07.094Z,99301.59
2022-11-09T15:13:38.555Z,99286.06
2022-11-09T15:16:11.219Z,99288.50
2022-11-09T15:18:47.332Z,99284.16
2022-11-09T15:21:20.101Z,99282.38
2022-11-09T15:23:50.851Z,99292.69
2022-11-09T15:26:29.071Z,99304.69
2022-11-09T15:28:58.450Z,99315.81
2022-11-09T15:31:30.575Z,99322.72
2022-11-09T15:34:00.840Z,99333.84
2022-11-09T15:36:35.530Z,99339.84
2022-11-09T15:39:09.223Z,99355.28
2022-11-09T15:41:39.605Z,99357.94
2022-11-09T15:44:09.272Z,99347.59
2022-11-09T15:46:46.640Z,99345.06
2022-11-09T15:49:21.516Z,99345.91
2022-11-09T15:51:51.841Z,99333.81
2022-11-09T15:54:21.804Z,99331.22
2022-11-09T15:56:52.003Z,99327.81
2022-11-09T15:59:24.084Z,99323.44
2022-11-09T16:01:56.188Z,99313.19
2022-11-09T16:04:25.781Z,99301.97
2022-11-09T16:06:55.235Z,99302.84
2022-11-09T16:09:24.756Z,99294.25
2022-11-09T16:11:54.244Z,99291.69
2022-11-09T16:14:23.881Z,99296.84
2022-11-09T16:16:55.937Z,99297.72
2022-11-09T16:19:25.369Z,99309.75
2022-11-09T16:21:54.870Z,99316.69
2022-11-09T16:24:24.452Z,99314.09
2022-11-09T16:26:53.878Z,99322.72
2022-11-09T16:29:24.174Z,99324.41
2022-11-09T16:31:56.860Z,99327.03
2022-11-09T16:34:26.369Z,99343.47
2022-11-09T16:36:57.108Z,99366.75
2022-11-09T16:39:28.414Z,99391.84
2022-11-09T16:41:57.980Z,99404.72
2022-11-09T16:44:27.829Z,99394.38
2022-11-09T16:46:59.923Z,99408.09
2022-11-09T16:49:29.365Z,99439.06
2022-11-09T16:51:58.778Z,99423.44
2022-11-09T16:54:28.573Z,99394.06
2022-11-09T16:56:58.086Z,99377.50
2022-11-09T16:59:27.596Z,99354.09
2022-11-09T17:02:01.047Z,99353.06
2022-11-09T17:04:30.499Z,99350.34
2022-11-09T17:07:00.003Z,99357.16
2022-11-09T17:09:29.569Z,99370.91
2022-11-09T17:11:59.013Z,99368.25
2022-11-09T17:14:31.063Z,99375.94
2022-11-09T17:17:03.071Z,99392.31
2022-11-09T17:19:34.634Z,99388.03
2022-11-09T17:22:04.541Z,99407.78
2022-11-09T17:24:34.924Z,99419.69
2022-11-09T17:27:04.589Z,99441.19
2022-11-09T17:29:34.459Z,99458.34
2022-11-09T17:32:06.729Z,99480.72
2022-11-09T17:34:36.397Z,99503.94
2022-11-09T17:37:06.248Z,99514.28
2022-11-09T17:39:35.790Z,99547.00
2022-11-09T17:42:05.307Z,99552.19
2022-11-09T17:44:37.192Z,99555.66
2022-11-09T17:47:09.263Z,99554.84
2022-11-09T17:49:38.706Z,99564.25
2022-11-09T17:52:08.299Z,99608.19
2022-11-09T17:54:37.757Z,99626.97
2022-11-09T17:57:07.253Z,99640.78
2022-11-09T17:59:36.712Z,99712.97
2022-11-09T18:02:08.928Z,99900.81
2022-11-09T18:04:39.651Z,100248.25
2022-11-09T18:07:09.213Z,100467.41
2022-11-09T18:09:41.765Z,100533.91
2022-11-09T18:12:13.173Z,100530.66
2022-11-09T18:14:42.581Z,100519.34
2022-11-09T18:17:14.767Z,100497.16
2022-11-09T18:19:44.305Z,100478.03
2022-11-09T18:22:14.808Z,100466.78
2022-11-09T18:24:44.297Z,100446.97
2022-11-09T18:27:13.792Z,100431.50
2022-11-09T18:29:43.289Z,100408.19
2022-11-09T18:32:15.320Z,100395.25
2022-11-09T18:34:44.856Z,100381.38
2022-11-09T18:37:14.281Z,100373.63
2022-11-09T18:39:43.832Z,100356.47
2022-11-09T18:42:13.390Z,100366.13
2022-11-09T18:44:43.249Z,100363.63
2022-11-09T18:47:15.323Z,100359.56
2022-11-09T18:49:44.801Z,100366.59
2022-11-09T18:52:14.289Z,100372.66
2022-11-09T18:54:43.842Z,100380.00
2022-11-09T18:57:17.322Z,100392.94
2022-11-09T18:59:49.297Z,100417.34
2022-11-09T19:02:22.628Z,100418.84
2022-11-09T19:04:52.065Z,100442.75
2022-11-09T19:07:21.626Z,100448.66
2022-11-09T19:09:55.475Z,100450.97
2022-11-09T19:12:26.454Z,100449.09
2022-11-09T19:14:55.989Z,100450.63
2022-11-09T19:17:28.027Z,100457.41
2022-11-09T19:19:57.544Z,100459.16
2022-11-09T19:22:29.106Z,100462.44
2022-11-09T19:24:58.570Z,100455.59
2022-11-09T19:27:28.900Z,100453.78
2022-11-09T19:29:58.378Z,100461.38
2022-11-09T19:32:30.464Z,100458.69
2022-11-09T19:35:00.053Z,100456.34
2022-11-09T19:37:29.591Z,100465.59
2022-11-09T19:39:59.139Z,100473.72
2022-11-09T19:42:28.564Z,100482.44
2022-11-09T19:44:57.970Z,100488.06
2022-11-09T19:47:29.993Z,100498.16
2022-11-09T19:49:59.467Z,100517.81
2022-11-09T19:52:28.994Z,100518.56
2022-11-09T19:54:58.596Z,100523.19
2022-11-09T19:57:28.098Z,100530.91
2022-11-09T19:59:57.573Z,100544.50
2022-11-09T20:02:29.681Z,100548.75
2022-11-09T20:04:59.192Z,100559.78
2022-11-09T20:07:29.650Z,100555.56
2022-11-09T20:09:59.142Z,100557.31
2022-11-09T20:12:41.243Z,100569.22
2022-11-09T20:15:11.264Z,100575.34
2022-11-09T20:17:43.288Z,100579.00
2022-11-09T20:20:15.300Z,100583.47
2022-11-09T20:22:45.051Z,100598.88
2022-11-09T20:25:14.547Z,100598.06
2022-11-09T20:27:44.029Z,100599.78
2022-11-09T20:30:14.766Z,100598.25
2022-11-09T20:32:46.803Z,100601.72
2022-11-09T20:35:16.267Z,100614.59
2022-11-09T20:37:45.877Z,100616.44
2022-11-09T20:40:15.927Z,100616.25
2022-11-09T20:42:45.400Z,100613.69
2022-11-09T20:45:15.565Z,100607.63
2022-11-09T20:48:07.671Z,100620.41
2022-11-09T20:50:37.087Z,100615.88
2022-11-09T20:53:06.599Z,100620.00
2022-11-09T20:55:39.163Z,100630.97
2022-11-09T20:58:08.780Z,100634.34
2022-11-09T21:00:38.250Z,100625.59
2022-11-09T21:03:11.479Z,100630.72
2022-11-09T21:05:40.924Z,100628.88
2022-11-09T21:08:10.328Z,100631.50
2022-11-09T21:10:39.767Z,100638.31
2022-11-09T21:13:09.261Z,100641.69
2022-11-09T21:15:38.757Z,100646.78
2022-11-09T21:18:11.037Z,100642.63
2022-11-09T21:20:41.125Z,100649.28
2022-11-09T21:23:24.624Z,100649.28
2022-11-09T21:26:06.555Z,100659.59
2022-11-09T21:28:48.438Z,100664.75
2022-11-09T21:31:17.903Z,100661.38
2022-11-09T21:33:49.986Z,100662.31
2022-11-09T21:36:19.457Z,100674.38
2022-11-09T21:38:48.982Z,100668.41
2022-11-09T21:41:30.938Z,100680.47
2022-11-09T21:44:00.378Z,100680.47
2022-11-09T21:46:29.849Z,100680.47
2022-11-09T21:49:01.828Z,100682.28
2022-11-09T21:51:31.344Z,100685.78
2022-11-09T21:54:00.932Z,100690.94
2022-11-09T21:56:30.450Z,100686.69
2022-11-09T21:58:59.910Z,100688.34
2022-11-09T22:01:29.409Z,100694.44
2022-11-09T22:04:02.482Z,100705.50
2022-11-09T22:06:31.993Z,100700.56
2022-11-09T22:09:01.465Z,100704.03
2022-11-09T22:11:43.272Z,100709.00
2022-11-09T22:14:27.588Z,100703.00
2022-11-09T22:16:56.971Z,100715.06
2022-11-09T22:19:42.277Z,100727.16
2022-11-09T22:22:11.680Z,100722.88
2022-11-09T22:24:41.213Z,100718.41
2022-11-09T22:27:11.060Z,100733.88
2022-11-09T22:29:40.701Z,100724.44
2022-11-09T22:32:10.277Z,100731.28
2022-11-09T22:34:42.301Z,100730.44
2022-11-09T22:37:11.805Z,100733.88
2022-11-09T22:39:46.789Z,100736.41
2022-11-09T22:42:16.928Z,100733.69
2022-11-09T22:44:46.349Z,100741.28
2022-11-09T22:47:15.744Z,100743.88
2022-11-09T22:49:47.754Z,100747.38
2022-11-09T22:52:18.284Z,100756.69
2022-11-09T22:54:47.841Z,100753.09
2022-11-09T22:57:17.231Z,100753.28
2022-11-09T22:59:46.633Z,100758.25
2022-11-09T23:02:16.079Z,100761.63
2022-11-09T23:04:48.203Z,100773.56
2022-11-09T23:07:17.676Z,100773.56
2022-11-09T23:09:47.224Z,100780.44
2022-11-09T23:12:18.084Z,100777.84
2022-11-09T23:15:00.085Z,100787.06
2022-11-09T23:17:42.102Z,100781.91
2022-11-09T23:20:14.746Z,100788.00
2022-11-09T23:22:44.174Z,100791.31
2022-11-09T23:25:27.113Z,100796.44
2022-11-09T23:27:56.885Z,100803.16
2022-11-09T23:30:26.325Z,100798.00
2022-11-09T23:32:55.817Z,100802.25
2022-11-09T23:35:28.534Z,100800.56
2022-11-09T23:38:01.475Z,100804.91
2022-11-09T23:40:31.318Z,100805.75
2022-11-09T23:43:04.219Z,100814.94
2022-11-09T23:45:33.742Z,100808.75
2022-11-09T23:48:03.136Z,100808.97
2022-11-09T23:50:35.869Z,100812.28
2022-11-09T23:53:05.269Z,100807.19
2022-11-09T23:55:34.904Z,100816.69
2022-11-09T23:58:04.892Z,100807.84
